Omro, Wisconsin
Current Conditions -  °F | °C
As of 7:21 PM on Saturday 22 Nov 2014 (Local Time) from KOSH Reporting Station
Haze Haze  
Wind Chill: 41°   Ceiling: 1800
Heat Index: 41°   Visibility: 5mi
Dew Point: 39°   Wind: 3mph
Humidity: 93%   Direction: 200°SSW
Pressure: 29.78"   Gusts: NA
Location:  44.04°N, 88.74°W
Report Text: KOSH 230121Z 20003KT 5SM BR SCT012 OVC018 05/04 A2978 RMK AO2 T00500039
Loading
Personal Weather Stations






























Interactive Weather Map New forecast layout! Learn more

10-Day Weather Forecast

Advertisements
Track Severe Weather on mobile